createdAt,value
2023-04-18T00:01:59.727Z,12.82
2023-04-18T00:04:28.569Z,8.13
2023-04-18T00:06:56.949Z,9.57
2023-04-18T00:09:25.768Z,17.63
2023-04-18T00:11:54.255Z,8.18
2023-04-18T00:14:23.969Z,9.88
2023-04-18T00:16:54.340Z,13.23
2023-04-18T00:19:22.746Z,7.35
2023-04-18T00:21:53.283Z,17.55
2023-04-18T00:24:21.604Z,16.58
2023-04-18T00:26:50.108Z,11.32
2023-04-18T00:29:18.532Z,16.05
2023-04-18T00:31:48.461Z,11.15
2023-04-18T00:34:17.278Z,12.07
2023-04-18T00:36:46.980Z,9.10
2023-04-18T00:39:16.458Z,14.02
2023-04-18T00:41:44.783Z,17.25
2023-04-18T00:44:13.188Z,21.55
2023-04-18T00:46:41.663Z,16.35
2023-04-18T00:49:11.752Z,18.00
2023-04-18T00:51:41.175Z,10.73
2023-04-18T00:54:11.799Z,17.58
2023-04-18T00:56:40.814Z,16.98
2023-04-18T00:59:10.635Z,23.27
2023-04-18T01:01:40.575Z,16.63
2023-04-18T01:04:11.509Z,21.48
2023-04-18T01:06:44.137Z,22.33
2023-04-18T01:09:14.057Z,23.83
2023-04-18T01:11:42.332Z,21.20
2023-04-18T01:14:11.139Z,23.05
2023-04-18T01:16:40.111Z,26.27
2023-04-18T01:19:08.543Z,19.90
2023-04-18T01:21:43.841Z,20.67
2023-04-18T01:24:17.701Z,29.27
2023-04-18T01:26:48.517Z,22.73
2023-04-18T01:29:17.063Z,28.73
2023-04-18T01:31:46.088Z,18.27
2023-04-18T01:34:18.029Z,19.03
2023-04-18T01:36:47.398Z,25.80
2023-04-18T01:39:18.513Z,25.70
2023-04-18T01:41:47.133Z,23.73
2023-04-18T01:44:15.773Z,28.70
2023-04-18T01:46:47.385Z,23.60
2023-04-18T01:49:16.231Z,27.98
2023-04-18T01:51:44.476Z,30.50
2023-04-18T01:54:13.020Z,25.23
2023-04-18T01:56:42.897Z,32.60
2023-04-18T01:59:11.360Z,30.45
2023-04-18T02:01:40.081Z,20.60
2023-04-18T02:04:08.501Z,33.75
2023-04-18T02:06:36.997Z,23.85
2023-04-18T02:09:06.113Z,27.08
2023-04-18T02:11:34.422Z,29.15
2023-04-18T02:14:06.618Z,33.08
2023-04-18T02:16:35.427Z,30.92
2023-04-18T02:19:04.420Z,23.05
2023-04-18T02:21:32.727Z,23.60
2023-04-18T02:24:01.049Z,24.17
2023-04-18T02:26:29.374Z,21.55
2023-04-18T02:28:59.889Z,17.52
2023-04-18T02:31:33.290Z,24.92
2023-04-18T02:34:01.591Z,25.55
2023-04-18T02:36:29.868Z,30.65
2023-04-18T02:38:58.240Z,24.17
2023-04-18T02:41:26.903Z,22.45
2023-04-18T02:43:56.413Z,24.25
2023-04-18T02:46:26.048Z,23.92
2023-04-18T02:48:55.943Z,27.20
2023-04-18T02:51:26.908Z,18.67
2023-04-18T02:53:57.413Z,11.43
2023-04-18T02:56:29.889Z,33.35
2023-04-18T02:59:19.521Z,26.63
2023-04-18T03:02:09.208Z,14.98
2023-04-18T03:07:11.687Z,17.58
2023-04-18T03:09:40.909Z,24.17
2023-04-18T03:12:18.578Z,25.23
2023-04-18T03:14:47.768Z,19.23
2023-04-18T03:17:16.498Z,11.85
2023-04-18T03:19:50.609Z,21.23
2023-04-18T03:22:21.206Z,29.67
2023-04-18T03:24:57.768Z,18.90
2023-04-18T03:27:41.014Z,31.45
2023-04-18T03:30:10.487Z,23.90
2023-04-18T03:32:42.288Z,18.02
2023-04-18T03:35:12.680Z,22.75
2023-04-18T03:37:41.141Z,20.90
2023-04-18T03:40:12.876Z,31.35
2023-04-18T03:42:42.965Z,25.58
2023-04-18T03:45:12.905Z,26.98
2023-04-18T03:47:41.912Z,26.77
2023-04-18T03:50:12.138Z,23.38
2023-04-18T03:52:42.325Z,26.90
2023-04-18T03:55:11.484Z,20.35
2023-04-18T03:57:41.418Z,28.20
2023-04-18T04:00:15.859Z,27.95
2023-04-18T04:02:44.383Z,22.90
2023-04-18T04:05:21.018Z,14.10
2023-04-18T04:07:50.680Z,23.38
2023-04-18T04:10:19.626Z,23.77
2023-04-18T04:12:49.385Z,35.60
2023-04-18T04:15:18.318Z,21.88
2023-04-18T04:17:52.892Z,19.58
2023-04-18T04:20:24.859Z,21.50
2023-04-18T04:23:00.956Z,16.27
2023-04-18T04:25:30.033Z,20.20
2023-04-18T04:28:02.976Z,21.08
2023-04-18T04:30:35.916Z,35.28
2023-04-18T04:33:04.362Z,28.50
2023-04-18T04:35:34.910Z,24.50
2023-04-18T04:38:03.936Z,23.98
2023-04-18T04:40:39.900Z,18.05
2023-04-18T04:43:15.660Z,27.40
2023-04-18T04:45:46.017Z,26.23
2023-04-18T04:48:14.498Z,25.67
2023-04-18T04:50:53.119Z,24.48
2023-04-18T04:53:21.596Z,19.92
2023-04-18T04:55:50.265Z,20.58
2023-04-18T04:58:19.480Z,23.38
2023-04-18T05:01:12.492Z,29.80
2023-04-18T05:03:41.852Z,23.55
2023-04-18T05:06:11.869Z,44.33
2023-04-18T05:08:40.221Z,24.63
2023-04-18T05:11:08.459Z,21.60
2023-04-18T05:13:36.719Z,24.00
2023-04-18T05:16:05.982Z,18.73
2023-04-18T05:18:35.097Z,21.83
2023-04-18T05:21:03.478Z,24.42
2023-04-18T05:23:34.986Z,19.92
2023-04-18T05:26:03.582Z,14.63
2023-04-18T05:28:31.924Z,13.57
2023-04-18T05:31:02.355Z,16.48
2023-04-18T05:33:31.221Z,13.85
2023-04-18T05:36:00.180Z,20.77
2023-04-18T05:38:28.693Z,21.92
2023-04-18T05:41:00.429Z,21.52
2023-04-18T05:43:28.964Z,23.13
2023-04-18T05:45:57.956Z,14.35
2023-04-18T05:48:26.404Z,22.55
2023-04-18T05:50:54.958Z,19.42
2023-04-18T05:53:23.345Z,23.23
2023-04-18T05:55:51.677Z,32.95
2023-04-18T05:58:21.339Z,21.95
2023-04-18T06:00:49.682Z,23.85
2023-04-18T06:03:18.051Z,15.73
2023-04-18T06:05:46.673Z,16.02
2023-04-18T06:08:14.967Z,21.48
2023-04-18T06:10:43.224Z,25.15
2023-04-18T06:13:12.624Z,14.00
2023-04-18T06:15:42.250Z,19.90
2023-04-18T06:18:10.595Z,22.67
2023-04-18T06:20:38.945Z,16.55
2023-04-18T06:23:08.242Z,24.40
2023-04-18T06:25:39.096Z,18.00
2023-04-18T06:28:07.353Z,19.45
2023-04-18T06:30:35.936Z,21.17
2023-04-18T06:33:06.196Z,18.95
2023-04-18T06:35:34.451Z,21.60
2023-04-18T06:38:03.265Z,20.90
2023-04-18T06:40:31.612Z,21.02
2023-04-18T06:42:59.817Z,21.48
2023-04-18T06:45:31.260Z,20.83
2023-04-18T06:48:00.180Z,25.70
2023-04-18T06:50:31.030Z,21.85
2023-04-18T06:52:59.346Z,20.70
2023-04-18T06:55:27.673Z,22.58
2023-04-18T06:57:56.252Z,26.60
2023-04-18T07:00:24.524Z,14.48
2023-04-18T07:02:53.024Z,18.85
2023-04-18T07:05:21.468Z,19.27
2023-04-18T07:07:51.352Z,18.33
2023-04-18T07:10:20.205Z,20.95
2023-04-18T07:12:48.686Z,24.45
2023-04-18T07:15:17.113Z,18.67
2023-04-18T07:17:45.313Z,20.67
2023-04-18T07:20:14.448Z,19.90
2023-04-18T07:22:43.225Z,17.25
2023-04-18T07:25:13.195Z,29.83
2023-04-18T07:27:41.602Z,17.92
2023-04-18T07:30:10.902Z,24.33
2023-04-18T07:32:39.385Z,26.23
2023-04-18T07:35:08.142Z,26.08
2023-04-18T07:37:36.606Z,19.00
2023-04-18T07:40:05.878Z,26.60
2023-04-18T07:42:36.248Z,24.67
2023-04-18T07:45:04.864Z,24.15
2023-04-18T07:47:33.593Z,27.17
2023-04-18T07:50:02.467Z,25.33
2023-04-18T07:52:30.868Z,27.05
2023-04-18T07:54:59.450Z,26.88
2023-04-18T07:57:27.695Z,28.02
2023-04-18T07:59:57.396Z,26.13
2023-04-18T08:02:25.905Z,20.13
2023-04-18T08:04:56.461Z,26.30
2023-04-18T08:07:25.012Z,24.27
2023-04-18T08:09:53.432Z,24.92
2023-04-18T08:12:21.886Z,28.63
2023-04-18T08:14:50.444Z,26.83
2023-04-18T08:17:20.428Z,24.65
2023-04-18T08:19:48.728Z,28.63
2023-04-18T08:22:16.992Z,27.42
2023-04-18T08:25:00.952Z,28.20
2023-04-18T08:27:31.932Z,29.85
2023-04-18T08:30:00.672Z,32.67
2023-04-18T08:32:30.569Z,26.65
2023-04-18T08:34:58.982Z,31.23
2023-04-18T08:37:28.098Z,29.35
2023-04-18T08:39:56.673Z,26.38
2023-04-18T08:42:25.321Z,27.05
2023-04-18T08:44:54.112Z,35.10
2023-04-18T08:47:22.479Z,35.90
2023-04-18T08:49:53.693Z,28.48
2023-04-18T08:52:23.843Z,30.80
2023-04-18T08:54:52.618Z,34.13
2023-04-18T08:57:26.956Z,29.50
2023-04-18T08:59:55.754Z,33.00
2023-04-18T09:02:39.113Z,43.33
2023-04-18T09:05:14.801Z,27.13
2023-04-18T09:07:43.972Z,36.20
2023-04-18T09:10:13.924Z,33.47
2023-04-18T09:12:50.429Z,38.75
2023-04-18T09:15:22.647Z,33.63
2023-04-18T09:17:54.185Z,38.05
2023-04-18T09:20:34.690Z,28.05
2023-04-18T09:23:05.058Z,32.75
2023-04-18T09:25:36.148Z,30.67
2023-04-18T09:28:05.977Z,30.75
2023-04-18T09:30:38.152Z,45.83
2023-04-18T09:35:38.470Z,33.22
2023-04-18T09:38:07.711Z,40.90
2023-04-18T09:40:36.161Z,29.08
2023-04-18T09:43:19.464Z,31.20
2023-04-18T09:45:48.837Z,33.78
2023-04-18T09:48:17.214Z,34.22
2023-04-18T09:50:49.616Z,30.80
2023-04-18T09:55:53.297Z,30.95
2023-04-18T09:58:23.709Z,30.77
2023-04-18T10:00:54.515Z,34.22
2023-04-18T10:03:25.311Z,32.58
2023-04-18T10:05:57.964Z,27.10
2023-04-18T10:08:27.577Z,31.60
2023-04-18T10:10:58.747Z,32.50
2023-04-18T10:13:29.023Z,23.65
2023-04-18T10:15:57.921Z,28.85
2023-04-18T10:18:27.756Z,28.00
2023-04-18T10:21:04.422Z,36.10
2023-04-18T10:23:37.198Z,33.40
2023-04-18T10:26:06.230Z,27.05
2023-04-18T10:28:55.257Z,27.77
2023-04-18T10:31:24.396Z,29.42
2023-04-18T10:34:04.622Z,33.78
2023-04-18T10:36:36.049Z,31.08
2023-04-18T10:39:22.061Z,25.30
2023-04-18T10:41:51.595Z,32.83
2023-04-18T10:44:24.331Z,28.77
2023-04-18T10:47:32.425Z,26.33
2023-04-18T10:50:06.180Z,27.10
2023-04-18T10:52:38.762Z,20.15
2023-04-18T10:55:16.603Z,27.17
2023-04-18T10:57:46.714Z,21.80
2023-04-18T11:00:17.440Z,25.52
2023-04-18T11:02:57.933Z,29.48
2023-04-18T11:05:28.145Z,29.20
2023-04-18T11:07:57.761Z,28.27
2023-04-18T11:10:27.885Z,27.45
2023-04-18T11:12:57.498Z,37.13
2023-04-18T11:15:28.011Z,23.08
2023-04-18T11:18:00.017Z,25.48
2023-04-18T11:20:29.474Z,31.98
2023-04-18T11:23:00.781Z,22.88
2023-04-18T11:25:30.915Z,20.70
2023-04-18T11:28:00.973Z,26.63
2023-04-18T11:30:31.436Z,24.73
2023-04-18T11:32:59.826Z,21.42
2023-04-18T11:35:28.292Z,31.88
2023-04-18T11:37:58.035Z,24.98
2023-04-18T11:40:26.807Z,23.88
2023-04-18T11:42:56.510Z,21.70
2023-04-18T11:45:24.824Z,30.05
2023-04-18T11:47:58.346Z,27.42
2023-04-18T11:50:27.196Z,24.55
2023-04-18T11:52:56.545Z,23.25
2023-04-18T11:55:27.358Z,22.35
2023-04-18T11:57:57.022Z,26.83
2023-04-18T12:00:33.980Z,23.52
2023-04-18T12:03:04.607Z,23.40
2023-04-18T12:05:34.797Z,25.85
2023-04-18T12:08:12.009Z,18.65
2023-04-18T12:10:48.504Z,30.10
2023-04-18T12:13:16.845Z,21.25
2023-04-18T12:15:46.808Z,22.20
2023-04-18T12:18:19.822Z,25.52
2023-04-18T12:20:50.675Z,26.75
2023-04-18T12:23:33.006Z,25.08
2023-04-18T12:26:03.955Z,20.77
2023-04-18T12:28:32.948Z,21.98
2023-04-18T12:31:01.305Z,28.42
2023-04-18T12:33:29.710Z,19.65
2023-04-18T12:35:57.984Z,26.00
2023-04-18T12:38:27.225Z,21.63
2023-04-18T12:40:55.562Z,21.60
2023-04-18T12:43:25.813Z,22.88
2023-04-18T12:45:54.434Z,25.58
2023-04-18T12:48:22.689Z,22.92
2023-04-18T12:50:51.010Z,22.77
2023-04-18T12:53:19.152Z,22.58
2023-04-18T12:55:47.803Z,19.75
2023-04-18T12:58:18.838Z,28.00
2023-04-18T13:00:49.212Z,26.17
2023-04-18T13:03:17.694Z,15.50
2023-04-18T13:05:47.090Z,28.75
2023-04-18T13:08:17.607Z,21.42
2023-04-18T13:10:47.763Z,18.77
2023-04-18T13:13:16.280Z,21.02
2023-04-18T13:15:44.531Z,19.77
2023-04-18T13:18:14.187Z,25.70
2023-04-18T13:20:42.353Z,23.38
2023-04-18T13:23:11.637Z,23.30
2023-04-18T13:25:40.305Z,18.48
2023-04-18T13:28:08.529Z,20.35
2023-04-18T13:30:36.868Z,21.77
2023-04-18T13:33:05.473Z,23.30
2023-04-18T13:35:35.263Z,24.27
2023-04-18T13:38:04.079Z,25.88
2023-04-18T13:40:33.547Z,26.05
2023-04-18T13:43:02.166Z,21.80
2023-04-18T13:45:30.517Z,23.42
2023-04-18T13:47:58.887Z,24.60
2023-04-18T13:50:28.233Z,22.08
2023-04-18T13:52:57.855Z,17.83
2023-04-18T13:55:26.373Z,20.73
2023-04-18T13:57:55.022Z,20.67
2023-04-18T14:00:23.521Z,21.25
2023-04-18T14:02:52.027Z,14.38
2023-04-18T14:05:20.554Z,18.27
2023-04-18T14:07:49.928Z,19.67
2023-04-18T14:10:20.205Z,15.40
2023-04-18T14:12:48.480Z,15.93
2023-04-18T14:15:16.944Z,16.85
2023-04-18T14:17:46.035Z,21.67
2023-04-18T14:20:15.757Z,20.38
2023-04-18T14:22:44.059Z,16.52
2023-04-18T14:25:12.536Z,16.35
2023-04-18T14:27:42.566Z,21.77
2023-04-18T14:30:12.121Z,21.98
2023-04-18T14:32:40.646Z,21.35
2023-04-18T14:35:11.276Z,14.82
2023-04-18T14:37:39.855Z,16.27
2023-04-18T14:40:10.102Z,20.63
2023-04-18T14:42:38.966Z,20.42
2023-04-18T14:45:11.409Z,20.77
2023-04-18T14:47:40.289Z,14.35
2023-04-18T14:50:11.905Z,26.45
2023-04-18T14:52:40.448Z,20.42
2023-04-18T14:55:09.938Z,24.48
2023-04-18T14:57:39.327Z,21.15
2023-04-18T15:00:12.651Z,22.05
2023-04-18T15:02:43.340Z,19.98
2023-04-18T15:05:13.455Z,21.55
2023-04-18T15:07:43.583Z,21.60
2023-04-18T15:10:13.185Z,22.77
2023-04-18T15:12:41.831Z,19.73
2023-04-18T15:15:12.517Z,20.25
2023-04-18T15:17:41.093Z,17.92
2023-04-18T15:20:10.780Z,20.80
2023-04-18T15:22:39.079Z,15.45
2023-04-18T15:25:08.352Z,16.98
2023-04-18T15:27:37.032Z,19.55
2023-04-18T15:30:08.760Z,16.85
2023-04-18T15:32:40.384Z,17.95
2023-04-18T15:35:09.637Z,21.08
2023-04-18T15:37:38.118Z,17.45
2023-04-18T15:40:09.771Z,19.27
2023-04-18T15:42:38.252Z,18.65
2023-04-18T15:45:08.539Z,18.73
2023-04-18T15:47:38.847Z,23.45
2023-04-18T15:50:09.351Z,17.10
2023-04-18T15:52:37.760Z,20.48
2023-04-18T15:55:07.183Z,21.08
2023-04-18T15:57:36.548Z,15.88
2023-04-18T16:00:10.470Z,22.15
2023-04-18T16:02:40.223Z,19.95
2023-04-18T16:05:09.534Z,16.15
2023-04-18T16:07:37.664Z,16.67
2023-04-18T16:10:08.666Z,17.58
2023-04-18T16:12:37.243Z,19.95
2023-04-18T16:15:07.075Z,20.10
2023-04-18T16:17:35.772Z,13.18
2023-04-18T16:20:08.566Z,21.75
2023-04-18T16:22:36.994Z,20.60
2023-04-18T16:25:05.583Z,19.38
2023-04-18T16:27:33.855Z,17.92
2023-04-18T16:30:02.187Z,17.95
2023-04-18T16:32:30.746Z,18.80
2023-04-18T16:34:59.265Z,19.58
2023-04-18T16:37:29.122Z,21.13
2023-04-18T16:39:57.446Z,22.40
2023-04-18T16:42:25.902Z,17.35
2023-04-18T16:44:54.239Z,17.30
2023-04-18T16:47:22.551Z,18.55
2023-04-18T16:49:51.731Z,26.30
2023-04-18T16:52:20.044Z,21.08
2023-04-18T16:54:51.962Z,22.40
2023-04-18T16:57:21.057Z,17.52
2023-04-18T16:59:49.337Z,20.40
2023-04-18T17:02:17.904Z,14.77
2023-04-18T17:04:46.349Z,18.17
2023-04-18T17:07:14.573Z,11.43
2023-04-18T17:09:44.428Z,17.60
2023-04-18T17:12:14.693Z,17.27
2023-04-18T17:14:43.061Z,27.30
2023-04-18T17:17:11.491Z,16.67
2023-04-18T17:19:40.423Z,13.80
2023-04-18T17:22:08.799Z,17.55
2023-04-18T17:24:37.195Z,18.88
2023-04-18T17:27:05.571Z,13.50
2023-04-18T17:29:35.372Z,12.02
2023-04-18T17:32:03.799Z,26.35
2023-04-18T17:34:32.557Z,12.75
2023-04-18T17:37:01.054Z,16.48
2023-04-18T17:39:29.357Z,13.48
2023-04-18T17:41:57.704Z,21.13
2023-04-18T17:44:26.099Z,21.27
2023-04-18T17:46:56.002Z,14.93
2023-04-18T17:49:24.617Z,15.32
2023-04-18T17:51:52.843Z,15.57
2023-04-18T17:54:22.135Z,14.68
2023-04-18T17:56:50.563Z,15.13
2023-04-18T17:59:18.894Z,14.98
2023-04-18T18:01:47.455Z,15.68
2023-04-18T18:04:17.506Z,16.50
2023-04-18T18:06:55.054Z,8.95
2023-04-18T18:09:23.641Z,16.77
2023-04-18T18:12:33.187Z,15.20
2023-04-18T18:15:15.161Z,17.77
2023-04-18T18:18:21.688Z,16.58
2023-04-18T18:20:47.920Z,20.58
2023-04-18T18:23:20.047Z,14.15
2023-04-18T18:26:06.738Z,18.52
2023-04-18T18:28:44.850Z,22.42
2023-04-18T18:31:58.614Z,24.50
2023-04-18T18:34:40.175Z,17.98
2023-04-18T18:37:51.956Z,26.60
2023-04-18T18:40:42.779Z,19.83
2023-04-18T18:46:09.429Z,24.55
2023-04-18T18:48:59.159Z,18.42
2023-04-18T18:52:13.324Z,19.95
2023-04-18T18:54:43.022Z,21.10
2023-04-18T18:57:11.456Z,19.70
2023-04-18T18:59:39.681Z,20.30
2023-04-18T19:02:08.472Z,28.90
2023-04-18T19:04:37.222Z,19.80
2023-04-18T19:07:06.176Z,18.08
2023-04-18T19:09:34.497Z,17.10
2023-04-18T19:12:04.527Z,17.35
2023-04-18T19:14:33.020Z,20.77
2023-04-18T19:17:01.481Z,18.55
2023-04-18T19:19:29.775Z,8.73
2023-04-18T19:21:58.124Z,21.10
2023-04-18T19:24:26.553Z,19.90
2023-04-18T19:26:54.767Z,20.17
2023-04-18T19:29:25.276Z,12.50
2023-04-18T19:31:53.888Z,21.10
2023-04-18T19:34:22.324Z,8.95
2023-04-18T19:36:51.035Z,26.75
2023-04-18T19:39:22.305Z,11.18
2023-04-18T19:41:50.670Z,23.42
2023-04-18T19:44:18.962Z,16.92
2023-04-18T19:46:50.109Z,18.60
2023-04-18T19:49:18.537Z,16.05
2023-04-18T19:51:46.774Z,15.63
2023-04-18T19:54:15.056Z,15.00
2023-04-18T19:56:46.040Z,18.73
2023-04-18T19:59:14.980Z,19.17
2023-04-18T20:01:43.490Z,19.55
2023-04-18T20:04:17.652Z,8.45
2023-04-18T20:06:46.221Z,14.15
2023-04-18T20:09:16.994Z,13.95
2023-04-18T20:11:46.640Z,9.10
2023-04-18T20:14:15.043Z,23.73
2023-04-18T20:16:46.784Z,12.30
2023-04-18T20:19:19.636Z,21.33
2023-04-18T20:21:48.065Z,19.45
2023-04-18T20:24:16.364Z,8.73
2023-04-18T20:26:46.739Z,19.65
2023-04-18T20:29:15.360Z,26.15
2023-04-18T20:31:43.855Z,22.90
2023-04-18T20:34:12.315Z,14.98
2023-04-18T20:36:43.549Z,20.77
2023-04-18T20:39:13.489Z,17.42
2023-04-18T20:41:46.569Z,16.70
2023-04-18T20:44:17.480Z,17.15
2023-04-18T20:46:46.057Z,18.38
2023-04-18T20:49:14.667Z,12.60
2023-04-18T20:51:44.659Z,17.35
2023-04-18T20:54:13.592Z,18.50
2023-04-18T20:56:42.139Z,16.10
2023-04-18T20:59:12.856Z,15.27
2023-04-18T21:01:41.293Z,12.45
2023-04-18T21:04:09.926Z,11.93
2023-04-18T21:06:38.394Z,16.35
2023-04-18T21:09:17.360Z,12.45
2023-04-18T21:11:45.893Z,22.08
2023-04-18T21:14:14.320Z,8.57
2023-04-18T21:16:42.903Z,12.35
2023-04-18T21:19:12.287Z,15.02
2023-04-18T21:21:40.685Z,18.95
2023-04-18T21:24:11.183Z,16.15
2023-04-18T21:26:39.587Z,8.90
2023-04-18T21:29:07.957Z,12.38
2023-04-18T21:31:36.751Z,15.93
2023-04-18T21:34:06.469Z,11.15
2023-04-18T21:36:35.052Z,11.93
2023-04-18T21:39:04.123Z,10.23
2023-04-18T21:41:33.933Z,10.70
2023-04-18T21:44:02.380Z,13.10
2023-04-18T21:46:30.598Z,10.88
2023-04-18T21:48:58.924Z,22.63
2023-04-18T21:51:27.327Z,9.18
2023-04-18T21:53:55.660Z,16.52
2023-04-18T21:56:23.948Z,13.23
2023-04-18T21:58:53.670Z,13.25
2023-04-18T22:01:22.137Z,13.45
2023-04-18T22:03:50.801Z,9.75
2023-04-18T22:06:20.831Z,15.75
2023-04-18T22:08:50.028Z,14.48
2023-04-18T22:11:18.842Z,12.18
2023-04-18T22:13:47.524Z,18.20
2023-04-18T22:16:18.054Z,13.55
2023-04-18T22:18:46.416Z,12.48
2023-04-18T22:21:14.787Z,25.13
2023-04-18T22:23:43.063Z,8.45
2023-04-18T22:26:11.295Z,13.70
2023-04-18T22:28:39.761Z,11.60
2023-04-18T22:31:08.488Z,16.67
2023-04-18T22:33:38.249Z,17.08
2023-04-18T22:36:07.270Z,11.10
2023-04-18T22:38:35.677Z,12.57
2023-04-18T22:41:03.933Z,20.15
2023-04-18T22:43:32.489Z,11.10
2023-04-18T22:46:00.823Z,15.18
2023-04-18T22:48:30.137Z,8.80
2023-04-18T22:51:01.985Z,10.50
2023-04-18T22:53:30.583Z,16.15
2023-04-18T22:55:58.760Z,12.05
2023-04-18T22:58:27.138Z,13.40
2023-04-18T23:00:55.977Z,9.63
2023-04-18T23:03:24.552Z,9.93
2023-04-18T23:05:53.023Z,24.27
2023-04-18T23:08:22.925Z,13.23
2023-04-18T23:10:51.231Z,12.95
2023-04-18T23:13:19.523Z,12.43
2023-04-18T23:15:48.069Z,11.93
2023-04-18T23:18:16.731Z,10.95
2023-04-18T23:20:44.942Z,12.38
2023-04-18T23:23:13.269Z,10.00
2023-04-18T23:25:42.900Z,14.82
2023-04-18T23:28:11.133Z,13.60
2023-04-18T23:30:39.364Z,13.85
2023-04-18T23:33:08.594Z,14.98
2023-04-18T23:35:36.818Z,8.20
2023-04-18T23:38:05.596Z,10.23
2023-04-18T23:40:33.940Z,10.52
2023-04-18T23:43:03.981Z,11.45
2023-04-18T23:45:32.348Z,12.48
2023-04-18T23:48:01.244Z,10.65
2023-04-18T23:50:29.649Z,8.20
2023-04-18T23:52:58.023Z,17.42
2023-04-18T23:55:26.422Z,15.20
2023-04-18T23:57:54.778Z,9.75
